Terminal Aerodrome Forecast
Issued by NWS

Home | Current Version | Previous Version | Text Only | Print | Product List | Glossary On
Versions: 1 2 3 4 5 6 7 8 9 10 11 12 13 14
721
FTUS46 KSEW 061724
TAFCLM
TAF
KCLM 061724Z 0618/0718 08009KT P6SM SKC
     FM070000 30009KT P6SM SKC
     FM070800 VRB04KT P6SM SKC
     FM071700 30006KT P6SM FEW250=

USA.gov is the U.S. government's official web portal to all federal, state and local government web resources and services.